Time;durP1;ratioP1;P1;durP2;ratioP2;P2;SDS_P1;SDS_P2;PMS_P1;PMS_P2;Temp;Humidity;BMP_temperature;BMP_pressure;BME280_temperature;BME280_humidity;BME280_pressure;Samples;Min_cycle;Max_cycle;Signal;HPM_P1;HPM_P2
2022/06/17 00:01:56;;;;;;;12.50;6.15;;;;;;;20.32;94.68;101024.39;1687570;83;21055;-71
2022/06/17 00:04:23;;;;;;;11.05;6.10;;;;;;;20.26;95.08;101023.56;1690277;83;21020;-71
2022/06/17 00:06:55;;;;;;;10.82;6.28;;;;;;;20.29;95.50;101024.61;1693005;83;21060;-71
2022/06/17 00:09:26;;;;;;;9.30;6.25;;;;;;;20.28;95.71;101023.45;1687404;84;21134;-71
2022/06/17 00:11:54;;;;;;;10.08;6.33;;;;;;;20.39;95.53;101025.56;1695455;84;21031;-71
2022/06/17 00:14:29;;;;;;;11.05;6.00;;;;;;;20.36;95.35;101023.69;1689384;84;21087;-71
2022/06/17 00:16:56;;;;;;;;;;;;;;;20.32;95.35;101020.95;1689873;84;21074;-71
2022/06/17 00:19:24;;;;;;;9.38;5.87;;;;;;;20.24;94.92;101020.23;1689869;83;20135;-71
2022/06/17 00:21:53;;;;;;;8.60;5.72;;;;;;;20.19;95.62;101020.59;1684590;84;21095;-71
2022/06/17 00:24:25;;;;;;;9.05;5.83;;;;;;;20.20;95.60;101020.11;1688220;84;21047;-71
2022/06/17 00:26:55;;;;;;;8.80;5.67;;;;;;;20.24;95.52;101022.02;1690033;83;21102;-71
2022/06/17 00:29:27;;;;;;;10.40;6.20;;;;;;;20.25;95.30;101021.05;1690101;83;21175;-70
2022/06/17 00:31:55;;;;;;;12.05;6.70;;;;;;;19.99;96.22;101022.11;1689675;83;21036;-71
2022/06/17 00:34:23;;;;;;;8.80;6.05;;;;;;;19.91;97.26;101023.16;1693056;83;21109;-71
2022/06/17 00:36:59;;;;;;;11.50;6.28;;;;;;;19.81;97.69;101019.09;1692321;83;21039;-71
2022/06/17 00:39:33;;;;;;;11.15;6.47;;;;;;;19.80;97.82;101016.11;1691325;84;21047;-71
2022/06/17 00:42:11;;;;;;;10.15;5.95;;;;;;;19.83;96.79;101018.98;1696827;83;21047;-71
2022/06/17 00:44:55;;;;;;;12.80;6.72;;;;;;;19.82;95.82;101013.39;1689481;83;21175;-71
2022/06/17 00:47:42;;;;;;;10.32;6.08;;;;;;;19.77;95.85;101013.73;1687282;83;21520;-71
2022/06/17 00:50:36;;;;;;;11.53;6.47;;;;;;;19.87;95.08;101016.95;1691639;84;21107;-71
2022/06/17 00:53:20;;;;;;;11.37;6.50;;;;;;;19.73;94.73;101017.53;1693591;84;21046;-72
2022/06/17 00:56:00;;;;;;;9.65;6.25;;;;;;;19.60;94.22;101017.55;1692378;83;21051;-71
2022/06/17 00:58:43;;;;;;;13.05;6.95;;;;;;;19.64;93.66;101014.25;1689489;84;21113;-71
2022/06/17 01:01:11;;;;;;;9.45;5.90;;;;;;;19.61;93.79;101015.80;1689512;83;21063;-71
2022/06/17 01:03:39;;;;;;;7.95;5.20;;;;;;;19.51;94.30;101018.73;1688017;83;21060;-70
2022/06/17 01:06:15;;;;;;;9.58;5.58;;;;;;;19.60;93.53;101019.34;1693205;84;21638;-71
2022/06/17 01:11:42;;;;;;;8.70;5.55;;;;;;;19.45;93.33;101016.57;1684967;84;21052;-71
2022/06/17 01:14:13;;;;;;;8.68;4.97;;;;;;;19.55;92.32;101015.77;1691808;83;21063;-71
2022/06/17 01:16:43;;;;;;;6.20;5.20;;;;;;;19.36;92.76;101009.77;1689747;84;21134;-71
2022/06/17 01:19:35;;;;;;;10.45;5.40;;;;;;;19.26;93.86;101010.53;1693457;84;21074;-72
2022/06/17 01:22:27;;;;;;;8.70;5.45;;;;;;;19.28;93.84;101007.34;1684285;83;21039;-72
2022/06/17 01:25:07;;;;;;;10.35;5.25;;;;;;;19.26;93.96;101011.39;1688315;84;21540;-71
2022/06/17 01:27:42;;;;;;;8.68;5.50;;;;;;;19.07;94.93;101008.44;1678515;84;21068;-71
2022/06/17 01:30:15;;;;;;;9.88;5.35;;;;;;;18.95;95.85;101007.05;1694429;83;21081;-71
2022/06/17 01:32:51;;;;;;;10.25;5.40;;;;;;;18.98;95.93;101008.16;1689627;84;21091;-71
2022/06/17 01:35:23;;;;;;;9.68;5.50;;;;;;;19.05;96.15;101003.32;1690127;83;21044;-71
2022/06/17 01:37:50;;;;;;;9.65;5.20;;;;;;;19.20;95.48;100998.76;1691671;83;21079;-71
2022/06/17 01:40:19;;;;;;;7.17;5.03;;;;;;;19.09;95.42;101001.33;1691482;83;21067;-71
2022/06/17 01:42:47;;;;;;;8.15;5.75;;;;;;;19.20;95.25;100998.76;1661074;84;21150;-71
2022/06/17 01:45:16;;;;;;;8.40;4.80;;;;;;;19.40;94.41;101001.22;1690038;83;21099;-71
2022/06/17 01:47:45;;;;;;;8.88;5.30;;;;;;;19.30;94.20;101001.09;1691689;84;21496;-70
2022/06/17 01:50:17;;;;;;;9.53;6.17;;;;;;;19.18;94.52;101004.56;1689780;84;21051;-71
2022/06/17 01:53:14;;;;;;;8.28;5.60;;;;;;;19.21;94.41;101007.79;1689768;83;21539;-70
2022/06/17 01:55:49;;;;;;;8.70;5.65;;;;;;;19.27;93.92;101002.60;1687736;84;21047;-71
2022/06/17 01:58:28;;;;;;;6.70;4.72;;;;;;;19.40;93.11;101003.38;1683518;84;21114;-71
2022/06/17 02:00:57;;;;;;;8.40;5.30;;;;;;;19.36;93.86;101002.39;1692859;84;21060;-71
2022/06/17 02:03:30;;;;;;;9.40;4.87;;;;;;;19.43;94.41;101002.80;1684761;84;21052;-71
2022/06/17 02:06:08;;;;;;;6.37;4.97;;;;;;;19.44;94.01;101009.19;1689245;83;21087;-71
2022/06/17 02:08:36;;;;;;;8.08;5.20;;;;;;;19.34;94.59;101009.05;1677783;85;21074;-71
2022/06/17 02:11:07;;;;;;;7.50;5.10;;;;;;;19.30;94.12;101008.92;1686046;84;21094;-70
2022/06/17 02:13:36;;;;;;;6.20;5.03;;;;;;;19.40;93.76;101009.91;1687494;84;21528;-71
2022/06/17 02:16:10;;;;;;;6.47;4.28;;;;;;;19.27;94.02;101009.61;1687980;84;21099;-70
2022/06/17 02:18:44;;;;;;;6.90;5.30;;;;;;;19.32;94.13;101011.39;1692128;83;21069;-70
2022/06/17 02:21:26;;;;;;;9.40;4.97;;;;;;;19.52;92.96;101012.55;1689525;83;21086;-71
2022/06/17 02:23:54;;;;;;;9.68;5.65;;;;;;;19.42;92.80;101008.47;1686621;84;21099;-71
2022/06/17 02:26:23;;;;;;;10.10;5.55;;;;;;;19.47;91.59;101015.98;1693338;84;21056;-70
2022/06/17 02:28:52;;;;;;;8.80;5.85;;;;;;;19.39;92.09;101016.55;1690141;84;21056;-70
2022/06/17 02:31:22;;;;;;;10.60;6.15;;;;;;;19.38;92.02;101009.64;1687656;84;21042;-70
2022/06/17 02:33:51;;;;;;;14.00;6.85;;;;;;;19.38;91.75;101011.80;1693212;83;21035;-70
2022/06/17 02:36:28;;;;;;;12.18;6.50;;;;;;;19.37;91.26;101013.21;1691550;83;21043;-70
2022/06/17 02:38:55;;;;;;;8.68;5.55;;;;;;;19.44;91.46;101013.11;1687563;84;21142;-71
2022/06/17 02:41:24;;;;;;;11.00;6.45;;;;;;;19.41;91.13;101014.17;1691121;83;21142;-71
2022/06/17 02:43:57;;;;;;;10.72;6.15;;;;;;;19.51;91.39;101016.13;1683917;84;21204;-71
2022/06/17 02:46:37;;;;;;;8.60;5.97;;;;;;;19.69;90.63;101007.37;1681180;84;21047;-70
2022/06/17 02:49:10;;;;;;;9.98;5.40;;;;;;;19.52;91.22;101013.86;1687619;84;21063;-71
2022/06/17 02:51:41;;;;;;;12.47;6.00;;;;;;;19.60;91.72;101010.20;1688935;84;21146;-71
2022/06/17 02:54:13;;;;;;;8.03;5.67;;;;;;;19.70;91.38;101011.66;1692784;84;21523;-71
2022/06/17 02:56:45;;;;;;;7.60;5.30;;;;;;;19.66;92.09;101009.74;1693266;83;21535;-71
2022/06/17 02:59:30;;;;;;;12.43;5.80;;;;;;;19.81;92.59;101005.20;1692922;83;21102;-71
2022/06/17 03:02:03;;;;;;;8.03;5.65;;;;;;;19.77;93.43;101006.38;1688143;83;21087;-70
2022/06/17 03:04:42;;;;;;;10.58;6.08;;;;;;;19.90;93.33;101002.36;1690625;83;21032;-71
2022/06/17 03:07:20;;;;;;;12.05;6.42;;;;;;;20.06;92.40;101002.04;1686568;84;21600;-71
2022/06/17 03:09:49;;;;;;;10.50;6.37;;;;;;;20.18;92.13;101003.23;1691616;84;21103;-71
2022/06/17 03:12:24;;;;;;;12.58;6.30;;;;;;;20.32;91.10;101009.19;1689469;84;21520;-70
2022/06/17 03:15:09;;;;;;;13.48;6.65;;;;;;;20.41;91.41;101005.84;1689393;83;21028;-70
2022/06/17 03:17:44;;;;;;;10.90;6.15;;;;;;;20.52;90.73;101010.23;1696551;83;21023;-71
2022/06/17 03:20:20;;;;;;;10.70;6.77;;;;;;;20.68;90.51;101005.97;1692231;84;21094;-71
2022/06/17 03:22:52;;;;;;;11.63;6.90;;;;;;;20.76;90.28;101009.67;1690220;83;22689;-70
2022/06/17 03:25:26;;;;;;;8.57;6.33;;;;;;;20.83;89.56;100998.23;1694435;84;21122;-71
2022/06/17 03:28:03;;;;;;;11.18;7.10;;;;;;;21.00;88.96;101005.58;1686994;83;21060;-70
2022/06/17 03:30:51;;;;;;;9.10;6.30;;;;;;;21.15;87.68;101007.42;1690065;84;21118;-71
2022/06/17 03:33:26;;;;;;;10.70;6.37;;;;;;;21.32;87.10;100999.50;1689716;84;21095;-70
2022/06/17 03:35:59;;;;;;;9.68;7.08;;;;;;;21.46;85.91;100996.27;1689450;83;21051;-70
2022/06/17 03:38:41;;;;;;;12.20;7.12;;;;;;;21.54;85.68;101001.22;1693400;84;21110;-70
2022/06/17 03:41:22;;;;;;;13.62;7.25;;;;;;;21.61;85.60;101004.16;1691495;83;21020;-70
2022/06/17 03:43:57;;;;;;;10.63;6.45;;;;;;;21.57;85.48;100994.43;1690197;84;21051;-70
2022/06/17 03:46:28;;;;;;;11.50;6.58;;;;;;;21.70;84.90;100992.92;1692948;84;21059;-70
2022/06/17 03:49:16;;;;;;;12.45;7.35;;;;;;;21.94;84.16;100994.45;1690127;83;21571;-70
2022/06/17 03:51:45;;;;;;;10.18;6.33;;;;;;;21.97;84.06;101002.86;1689260;84;21126;-71
2022/06/17 03:54:16;;;;;;;12.70;6.87;;;;;;;21.97;84.79;101003.35;1692071;83;21117;-70
2022/06/17 03:56:48;;;;;;;11.45;7.17;;;;;;;22.11;84.89;101002.19;1684957;83;21084;-70
2022/06/17 03:59:21;;;;;;;10.68;6.58;;;;;;;22.21;84.26;100997.81;1687745;83;21087;-70
2022/06/17 04:01:59;;;;;;;9.33;6.87;;;;;;;22.57;83.61;100998.27;1692194;83;21031;-70
2022/06/17 04:04:33;;;;;;;10.15;6.70;;;;;;;22.57;82.48;101002.20;1686218;84;21166;-70
2022/06/17 04:07:01;;;;;;;13.08;7.53;;;;;;;22.62;82.06;100996.05;1690677;83;21659;-70
2022/06/17 04:09:39;;;;;;;11.60;7.33;;;;;;;22.79;81.91;100992.80;1694582;84;21016;-71
2022/06/17 04:12:19;;;;;;;11.48;6.65;;;;;;;22.96;82.38;100993.09;1690288;83;21039;-70
2022/06/17 04:15:35;;;;;;;10.38;6.90;;;;;;;22.90;82.22;100993.64;1690710;83;21040;-70
2022/06/17 04:18:04;;;;;;;8.30;6.83;;;;;;;23.04;81.53;100992.45;1683024;83;21043;-71
2022/06/17 04:20:48;;;;;;;14.45;7.25;;;;;;;23.30;80.70;100997.98;1688767;84;21066;-70
2022/06/17 04:23:28;;;;;;;10.98;7.25;;;;;;;23.41;80.07;100989.95;1694981;83;21012;-70
2022/06/17 04:26:08;;;;;;;11.05;6.83;;;;;;;23.69;79.04;100993.52;1689438;83;21087;-70
2022/06/17 04:28:47;;;;;;;9.50;6.80;;;;;;;23.81;79.02;100989.45;1692969;83;21527;-71
2022/06/17 04:31:21;;;;;;;13.53;7.22;;;;;;;23.96;78.91;100989.32;1682808;84;21044;-71
2022/06/17 04:33:59;;;;;;;13.85;7.17;;;;;;;24.11;77.95;100990.53;1691846;83;21555;-71
2022/06/17 04:36:48;;;;;;;11.90;7.00;;;;;;;24.30;77.48;100990.92;1666111;84;21082;-71
2022/06/17 04:39:28;;;;;;;12.68;6.72;;;;;;;24.37;76.02;100988.07;1665422;84;21055;-71
2022/06/17 04:42:03;;;;;;;14.38;7.22;;;;;;;24.49;74.84;100994.44;1673749;84;21062;-71
2022/06/17 04:44:35;;;;;;;10.05;6.92;;;;;;;24.64;74.29;100985.61;1689689;84;21052;-70
2022/06/17 04:47:09;;;;;;;9.70;6.87;;;;;;;24.80;73.49;100992.36;1691970;84;21035;-71
2022/06/17 04:49:46;;;;;;;10.72;7.15;;;;;;;24.93;72.67;100999.89;1693290;84;21102;-70
2022/06/17 04:52:22;;;;;;;10.60;6.95;;;;;;;24.84;73.34;100992.41;1691164;83;21055;-70
2022/06/17 04:54:51;;;;;;;10.28;6.90;;;;;;;24.97;73.65;100994.16;1664354;83;21115;-70
2022/06/17 04:57:38;;;;;;;12.70;7.50;;;;;;;25.34;72.62;100998.97;1688220;84;21083;-71
2022/06/17 05:00:07;;;;;;;10.28;6.53;;;;;;;25.65;70.58;100995.44;1689631;84;21083;-71
2022/06/17 05:02:36;;;;;;;12.73;7.53;;;;;;;25.70;69.90;100990.52;1686962;83;21117;-70
2022/06/17 05:05:29;;;;;;;11.70;7.10;;;;;;;25.82;69.11;100996.36;1690882;83;21760;-71
2022/06/17 05:07:57;;;;;;;14.60;7.37;;;;;;;25.90;69.23;100991.66;1694176;83;21058;-71
2022/06/17 05:10:30;;;;;;;12.23;6.75;;;;;;;26.15;68.49;100997.89;1690876;83;21854;-70
2022/06/17 05:13:19;;;;;;;10.70;7.40;;;;;;;26.34;67.96;100994.20;1691108;84;21134;-71
2022/06/17 05:15:48;;;;;;;12.95;7.83;;;;;;;26.57;67.58;100996.59;1691757;84;21058;-71
2022/06/17 05:18:15;;;;;;;12.15;6.40;;;;;;;26.81;65.79;100988.92;1696576;84;21051;-71
2022/06/17 05:20:45;;;;;;;15.25;8.33;;;;;;;27.04;65.24;100993.89;1685522;84;21104;-71
2022/06/17 05:23:16;;;;;;;17.27;7.53;;;;;;;27.02;66.19;100997.69;1685379;84;22041;-71
2022/06/17 05:25:48;;;;;;;17.70;7.08;;;;;;;27.26;65.78;100996.41;1688129;84;21059;-71
2022/06/17 05:28:20;;;;;;;15.83;6.83;;;;;;;27.19;64.21;100995.41;1694669;84;21047;-71
2022/06/17 05:30:55;;;;;;;15.18;7.22;;;;;;;27.37;63.14;100997.42;1692203;83;21038;-71
2022/06/17 05:33:24;;;;;;;21.45;7.60;;;;;;;27.53;63.48;100994.41;1687833;84;21039;-71
2022/06/17 05:35:51;;;;;;;14.73;8.10;;;;;;;27.82;61.05;100995.69;1688198;83;21040;-71
2022/06/17 05:38:18;;;;;;;22.80;10.05;;;;;;;28.01;61.17;100994.03;1692393;85;21052;-71
2022/06/17 05:40:46;;;;;;;26.95;12.07;;;;;;;28.24;59.10;100996.75;1692704;83;21071;-71
2022/06/17 05:43:13;;;;;;;29.87;11.88;;;;;;;28.34;56.15;100990.74;1690435;83;21051;-71
2022/06/17 05:45:42;;;;;;;20.70;10.88;;;;;;;28.44;53.05;100995.83;1689410;83;21141;-71
2022/06/17 05:48:15;;;;;;;24.95;10.65;;;;;;;28.56;54.08;100985.20;1646691;86;21132;-71
2022/06/17 05:51:02;;;;;;;17.67;8.93;;;;;;;28.63;52.42;100993.30;1659895;84;21105;-70
2022/06/17 05:53:33;;;;;;;15.30;7.85;;;;;;;28.77;50.31;100995.67;1684800;84;21086;-71
2022/06/17 05:56:04;;;;;;;15.30;7.60;;;;;;;28.84;49.85;100993.17;1687965;84;21132;-70
2022/06/17 05:58:31;;;;;;;14.15;6.40;;;;;;;28.83;48.39;100998.95;1692504;84;21039;-71
2022/06/17 06:00:59;;;;;;;8.60;4.70;;;;;;;29.03;48.56;100992.69;1666239;83;21048;-71
2022/06/17 06:03:29;;;;;;;7.67;4.60;;;;;;;29.36;48.55;101005.23;1693386;83;21086;-71
2022/06/17 06:05:58;;;;;;;10.58;4.40;;;;;;;29.44;48.11;101000.84;1689970;84;21079;-71
2022/06/17 06:08:25;;;;;;;13.60;5.58;;;;;;;29.40;45.57;100994.25;1687867;83;21072;-71
2022/06/17 06:10:55;;;;;;;12.18;5.08;;;;;;;29.60;46.06;100991.40;1687179;84;21077;-71
2022/06/17 06:13:24;;;;;;;10.55;5.60;;;;;;;29.45;45.33;100997.20;1694666;83;21133;-71
2022/06/17 06:15:55;;;;;;;14.60;6.25;;;;;;;29.51;46.65;100988.52;1690315;83;21059;-71
2022/06/17 06:18:32;;;;;;;13.18;6.45;;;;;;;29.64;46.73;100982.07;1686684;84;21087;-71
2022/06/17 06:21:04;;;;;;;13.25;6.90;;;;;;;29.79;46.28;100979.99;1687245;84;21012;-71
2022/06/17 06:23:29;;;;;;;10.55;6.00;;;;;;;29.99;47.83;100979.76;1691307;84;21083;-71
2022/06/17 06:25:58;;;;;;;11.90;6.12;;;;;;;30.05;46.48;100981.67;1688946;83;21062;-71
2022/06/17 06:28:27;;;;;;;12.20;6.17;;;;;;;30.21;46.67;100981.14;1690658;84;22674;-71
2022/06/17 06:31:07;;;;;;;11.85;5.78;;;;;;;30.37;47.33;100972.17;1688457;84;21535;-71
2022/06/17 06:33:34;;;;;;;8.20;5.33;;;;;;;30.39;46.15;100975.46;1690208;83;21086;-71
2022/06/17 06:36:01;;;;;;;9.60;3.98;;;;;;;30.42;46.36;100972.45;1688374;83;21867;-71
2022/06/17 06:38:28;;;;;;;7.28;3.30;;;;;;;30.46;44.45;100973.20;1687467;83;21095;-71
2022/06/17 06:40:56;;;;;;;4.65;2.90;;;;;;;30.64;42.19;100974.64;1688527;84;21099;-71
2022/06/17 06:43:24;;;;;;;5.78;3.55;;;;;;;30.80;41.32;100962.43;1687190;84;21099;-71
2022/06/17 06:46:17;;;;;;;6.67;3.87;;;;;;;31.04;41.81;100965.72;1684776;84;21036;-71
2022/06/17 06:48:47;;;;;;;6.97;3.90;;;;;;;30.76;41.46;100966.48;1690779;84;21578;-71
2022/06/17 06:51:14;;;;;;;5.20;2.92;;;;;;;31.11;40.83;100949.33;1693396;83;21010;-71
2022/06/17 06:53:43;;;;;;;6.47;4.10;;;;;;;30.65;39.90;100961.65;1690290;84;21102;-71
2022/06/17 06:56:12;;;;;;;10.40;4.97;;;;;;;30.65;39.90;100961.65;1688317;84;21646;-71
2022/06/17 06:58:39;;;;;;;5.08;4.17;;;;;;;30.68;41.91;100963.43;1693120;84;21048;-71
2022/06/17 07:01:07;;;;;;;8.88;4.17;;;;;;;30.85;40.22;100956.53;1690472;83;21071;-71
2022/06/17 07:03:34;;;;;;;6.85;4.75;;;;;;;30.87;39.89;100953.99;1691552;84;21055;-70
2022/06/17 07:06:05;;;;;;;6.60;3.70;;;;;;;31.08;40.75;100954.53;1693027;84;21102;-71
2022/06/17 07:08:36;;;;;;;6.20;3.58;;;;;;;31.10;40.18;100950.33;1690177;83;21071;-71
2022/06/17 07:11:07;;;;;;;5.95;3.77;;;;;;;31.34;42.80;100953.89;1684531;84;21070;-71
2022/06/17 07:13:36;;;;;;;5.85;3.10;;;;;;;31.56;41.13;100947.22;1690892;83;21169;-71
2022/06/17 07:16:08;;;;;;;7.60;3.20;;;;;;;31.49;38.95;100944.52;1692994;83;21522;-71
2022/06/17 07:18:36;;;;;;;6.25;3.17;;;;;;;31.43;38.23;100948.42;1692789;83;21078;-71
2022/06/17 07:21:08;;;;;;;5.78;2.85;;;;;;;31.42;38.51;100947.61;1689332;83;22697;-71
2022/06/17 07:23:40;;;;;;;2.92;2.52;;;;;;;31.67;37.88;100945.84;1693818;84;21555;-71
2022/06/17 07:26:20;;;;;;;3.75;2.50;;;;;;;31.82;39.28;100947.06;1693744;83;21527;-71
2022/06/17 07:28:49;;;;;;;5.45;2.60;;;;;;;31.91;38.23;100944.02;1691222;83;21090;-71
2022/06/17 07:31:17;;;;;;;3.33;2.42;;;;;;;31.82;36.97;100946.55;1692857;83;21066;-71
2022/06/17 07:33:45;;;;;;;4.08;2.00;;;;;;;31.76;37.55;100941.20;1690703;84;21063;-71
2022/06/17 07:41:52;;;;;;;3.80;1.60;;;;;;;32.00;35.36;100947.91;1686117;84;21555;-71
2022/06/17 07:44:20;;;;;;;2.67;1.50;;;;;;;32.19;35.20;100940.48;1680315;84;21540;-71
2022/06/17 07:46:48;;;;;;;2.83;1.67;;;;;;;32.26;35.19;100941.83;1682738;84;21178;-71
2022/06/17 07:49:16;;;;;;;3.40;1.90;;;;;;;32.08;34.28;100941.88;1687101;83;21102;-70
2022/06/17 07:51:46;;;;;;;4.22;1.75;;;;;;;32.18;34.70;100934.02;1694636;84;21140;-71
2022/06/17 07:54:13;;;;;;;3.08;1.70;;;;;;;32.26;33.55;100936.01;1688433;83;21847;-71
2022/06/17 07:56:41;;;;;;;4.35;1.70;;;;;;;32.37;35.36;100935.92;1692634;84;21082;-71
2022/06/17 07:59:11;;;;;;;3.85;2.50;;;;;;;32.62;35.33;100929.53;1694177;84;21035;-71
2022/06/17 08:01:39;;;;;;;4.90;2.20;;;;;;;32.56;33.87;100933.53;1685852;84;21088;-71
2022/06/17 08:04:07;;;;;;;2.10;1.92;;;;;;;32.67;35.39;100932.95;1690362;83;21563;-71
2022/06/17 08:06:34;;;;;;;2.10;1.90;;;;;;;32.63;34.54;100938.37;1684943;83;21158;-71
2022/06/17 08:09:04;;;;;;;3.27;2.08;;;;;;;32.68;34.56;100938.05;1688615;84;21086;-72
2022/06/17 08:11:33;;;;;;;3.00;2.00;;;;;;;32.53;33.46;100933.41;1685785;83;21551;-71
2022/06/17 08:14:00;;;;;;;4.55;2.10;;;;;;;32.60;33.73;100934.25;1690296;83;21071;-71
2022/06/17 08:16:28;;;;;;;4.03;2.30;;;;;;;32.56;35.51;100933.02;1692495;83;21115;-71
2022/06/17 08:18:55;;;;;;;3.27;2.33;;;;;;;32.74;35.74;100927.91;1686899;84;21060;-71
2022/06/17 08:21:23;;;;;;;3.92;2.35;;;;;;;32.64;33.49;100932.81;1691654;84;21115;-71
2022/06/17 08:23:50;;;;;;;4.45;2.47;;;;;;;32.84;35.97;100927.51;1691061;84;21020;-71
2022/06/17 08:26:17;;;;;;;2.60;2.20;;;;;;;33.01;35.06;100931.09;1690583;83;21107;-72
2022/06/17 08:28:45;;;;;;;5.72;1.85;;;;;;;33.03;34.89;100927.22;1690111;83;21073;-71
2022/06/17 08:31:12;;;;;;;3.45;1.67;;;;;;;33.04;32.56;100928.84;1689549;84;21595;-71
2022/06/17 08:33:40;;;;;;;2.40;1.80;;;;;;;32.97;32.84;100927.20;1694095;83;21063;-71
2022/06/17 08:36:14;;;;;;;2.72;1.98;;;;;;;32.75;33.05;100922.09;1690886;83;21087;-71
2022/06/17 08:38:54;;;;;;;5.15;2.20;;;;;;;32.92;33.14;100925.16;1687529;84;21091;-70
2022/06/17 08:41:31;;;;;;;4.70;2.70;;;;;;;32.84;32.30;100920.84;1685991;83;21083;-71
2022/06/17 08:44:22;;;;;;;6.05;2.40;;;;;;;32.78;33.60;100922.18;1688884;83;21150;-71
2022/06/17 08:47:07;;;;;;;4.75;2.42;;;;;;;32.89;33.17;100915.73;1690869;84;21083;-71
2022/06/17 08:50:03;;;;;;;4.33;2.60;;;;;;;33.15;33.31;100916.75;1679479;84;21148;-71
2022/06/17 08:52:51;;;;;;;4.90;2.80;;;;;;;33.21;34.88;100915.92;1690937;83;21044;-71
2022/06/17 08:55:29;;;;;;;4.30;2.30;;;;;;;33.17;33.76;100918.70;1690345;84;21039;-69
2022/06/17 08:58:07;;;;;;;5.35;2.67;;;;;;;33.51;36.42;100912.80;1691620;83;21941;-69
2022/06/17 09:01:05;;;;;;;6.78;2.67;;;;;;;33.84;35.75;100914.56;1690910;84;21094;-69
2022/06/17 09:03:51;;;;;;;4.42;2.90;;;;;;;33.78;35.01;100914.91;1695139;83;21075;-71
2022/06/17 09:06:55;;;;;;;3.58;2.60;;;;;;;33.45;34.56;100912.30;1687254;83;21071;-70
2022/06/17 09:10:05;;;;;;;4.40;2.70;;;;;;;33.63;35.56;100915.15;1691114;84;21052;-71
2022/06/17 09:12:58;;;;;;;8.88;3.20;;;;;;;34.15;35.06;100913.84;1690507;83;21056;-71
2022/06/17 09:15:40;;;;;;;11.28;3.60;;;;;;;34.26;32.39;100916.34;1686726;83;21146;-71
2022/06/17 09:18:26;;;;;;;7.00;3.17;;;;;;;34.38;31.88;100905.80;1693165;83;21083;-71
2022/06/17 09:21:13;;;;;;;3.92;2.75;;;;;;;34.03;32.11;100915.00;1679237;84;21168;-71
2022/06/17 09:23:42;;;;;;;7.10;2.65;;;;;;;34.25;33.95;100904.84;1689200;83;21053;-71
2022/06/17 09:26:28;;;;;;;3.70;1.90;;;;;;;34.28;32.12;100898.24;1691320;84;21000;-71
2022/06/17 09:29:00;;;;;;;3.83;1.85;;;;;;;34.43;31.32;100895.25;1663307;84;21074;-71
2022/06/17 09:31:32;;;;;;;4.40;2.12;;;;;;;34.22;31.33;100897.24;1695454;84;21074;-71
2022/06/17 09:34:23;;;;;;;5.65;2.10;;;;;;;34.21;31.35;100892.95;1691981;84;21124;-71
2022/06/17 09:37:13;;;;;;;4.08;2.20;;;;;;;33.82;29.98;100900.11;1689885;83;21104;-71
2022/06/17 09:39:51;;;;;;;2.30;2.10;;;;;;;33.91;31.28;100894.00;1688569;83;21154;-71
2022/06/17 09:42:35;;;;;;;3.83;2.27;;;;;;;33.67;32.02;100892.34;1668106;83;21562;-71
2022/06/17 09:45:10;;;;;;;3.67;2.15;;;;;;;33.82;30.96;100896.10;1692248;84;21052;-71
2022/06/17 09:47:42;;;;;;;3.67;2.10;;;;;;;33.77;30.55;100893.23;1676304;83;21063;-71
2022/06/17 09:50:21;;;;;;;3.73;2.17;;;;;;;34.01;32.56;100891.69;1686758;83;21035;-72
2022/06/17 09:53:11;;;;;;;3.27;2.30;;;;;;;34.15;30.52;100887.66;1682308;84;21121;-72
2022/06/17 09:56:01;;;;;;;4.30;2.25;;;;;;;34.41;33.75;100885.30;1687860;83;21059;-72
2022/06/17 09:58:36;;;;;;;4.42;2.27;;;;;;;34.86;31.46;100889.22;1690138;83;21138;-72
2022/06/17 10:01:04;;;;;;;2.75;2.08;;;;;;;34.82;31.30;100890.16;1688235;83;21098;-72
2022/06/17 10:03:35;;;;;;;3.80;2.20;;;;;;;35.18;32.32;100888.64;1688375;84;21055;-72
2022/06/17 10:06:19;;;;;;;4.03;2.00;;;;;;;35.48;30.91;100890.56;1686733;83;21098;-71
2022/06/17 10:09:19;;;;;;;3.75;2.08;;;;;;;35.59;29.38;100887.14;1653779;85;21554;-72
2022/06/17 10:12:07;;;;;;;3.75;1.90;;;;;;;36.05;31.16;100881.74;1693062;84;21059;-71
2022/06/17 10:15:08;;;;;;;3.10;2.25;;;;;;;36.48;30.33;100889.28;1687182;83;21086;-71
2022/06/17 10:21:23;;;;;;;3.67;2.02;;;;;;;36.54;28.65;100887.02;1690503;84;21020;-70
2022/06/17 10:24:23;;;;;;;5.90;2.58;;;;;;;36.51;28.96;100882.11;1688911;83;22233;-70
2022/06/17 10:27:12;;;;;;;3.90;2.40;;;;;;;35.93;29.86;100880.88;1685826;83;21091;-70
2022/06/17 10:30:00;;;;;;;4.92;2.15;;;;;;;36.06;30.05;100882.55;1686920;83;21209;-70
2022/06/17 10:32:29;;;;;;;4.30;2.20;;;;;;;36.00;30.39;100882.13;1691136;83;21039;-71
2022/06/17 10:35:02;;;;;;;6.75;2.30;;;;;;;36.01;30.72;100873.02;1689056;84;21062;-71
2022/06/17 10:37:32;;;;;;;6.72;2.20;;;;;;;36.39;30.87;100874.56;1691326;83;21038;-71
2022/06/17 10:40:02;;;;;;;4.67;2.35;;;;;;;36.35;31.36;100864.81;1694015;83;21042;-71
2022/06/17 10:42:30;;;;;;;5.05;2.40;;;;;;;36.22;30.14;100871.73;1690931;83;21593;-71
2022/06/17 10:45:01;;;;;;;4.45;2.00;;;;;;;35.81;30.07;100862.08;1687918;83;21011;-71
2022/06/17 10:47:52;;;;;;;2.58;2.08;;;;;;;36.18;29.30;100857.16;1690129;83;21046;-71
2022/06/17 10:50:28;;;;;;;4.58;2.17;;;;;;;36.07;30.35;100857.37;1690806;83;21568;-71
2022/06/17 10:53:21;;;;;;;3.85;1.75;;;;;;;35.80;31.30;100848.90;1694156;84;21138;-71
2022/06/17 10:55:53;;;;;;;3.77;1.95;;;;;;;35.92;31.08;100852.44;1687478;84;21093;-71
2022/06/17 10:58:24;;;;;;;3.75;1.98;;;;;;;35.68;30.77;100846.17;1689483;84;21063;-71
2022/06/17 11:01:15;;;;;;;3.90;1.95;;;;;;;35.64;29.39;100847.63;1689998;83;21059;-72
2022/06/17 11:03:52;;;;;;;4.53;1.80;;;;;;;35.55;28.74;100843.11;1692881;83;21043;-71
2022/06/17 11:06:23;;;;;;;4.58;1.87;;;;;;;35.99;28.86;100841.13;1690394;83;21229;-71
2022/06/17 11:08:59;;;;;;;6.30;2.20;;;;;;;36.25;29.31;100841.25;1687620;84;21036;-71
2022/06/17 11:14:45;;;;;;;4.42;2.00;;;;;;;36.03;29.74;100838.78;1691820;83;21058;-71
2022/06/17 11:17:30;;;;;;;4.50;2.10;;;;;;;36.06;30.36;100838.34;1678797;85;21083;-71
2022/06/17 11:20:28;;;;;;;4.17;1.90;;;;;;;35.86;29.06;100842.11;1689752;83;21558;-71
2022/06/17 11:23:18;;;;;;;2.40;2.00;;;;;;;35.41;27.96;100833.09;1692335;84;21043;-71
2022/06/17 11:25:46;;;;;;;2.98;2.10;;;;;;;35.27;29.35;100825.73;1688599;83;21091;-71
2022/06/17 11:28:25;;;;;;;2.37;1.92;;;;;;;35.50;29.19;100831.75;1686352;84;21104;-71
2022/06/17 11:30:58;;;;;;;2.70;1.87;;;;;;;36.47;29.93;100822.75;1669383;84;21098;-71
2022/06/17 11:33:35;;;;;;;4.33;2.15;;;;;;;37.53;29.21;100826.40;1686371;83;21047;-71
2022/06/17 11:36:22;;;;;;;6.17;2.10;;;;;;;37.44;27.59;100828.66;1689393;84;21040;-71
2022/06/17 11:38:51;;;;;;;3.37;1.92;;;;;;;37.37;27.83;100830.65;1689334;83;21524;-71
2022/06/17 11:41:30;;;;;;;3.90;1.95;;;;;;;37.77;27.94;100831.98;1691134;84;21003;-72
2022/06/17 11:44:12;;;;;;;4.00;1.80;;;;;;;37.77;29.46;100835.22;1690246;83;21083;-71
2022/06/17 11:46:48;;;;;;;1.87;1.67;;;;;;;37.46;28.81;100831.92;1689868;84;21031;-71
2022/06/17 11:49:17;;;;;;;2.15;1.70;;;;;;;36.87;29.96;100840.06;1689781;84;21075;-71
2022/06/17 11:52:01;;;;;;;3.10;1.45;;;;;;;36.27;30.85;100835.13;1690569;83;21130;-71
2022/06/17 11:54:34;;;;;;;4.30;1.50;;;;;;;35.86;31.19;100832.73;1689908;84;21087;-71
2022/06/17 11:57:24;;;;;;;;;;;;;;;35.78;31.05;100827.70;1697994;83;21538;-71
2022/06/17 11:59:56;;;;;;;3.33;1.50;;;;;;;35.39;32.29;100823.66;1688642;83;20139;-71
2022/06/17 12:02:24;;;;;;;2.57;1.47;;;;;;;35.07;31.91;100823.23;1690277;83;21519;-71
2022/06/17 12:05:05;;;;;;;2.42;1.37;;;;;;;35.37;32.50;100824.40;1687407;83;21060;-71
2022/06/17 12:07:52;;;;;;;2.85;1.50;;;;;;;35.40;31.98;100822.06;1686898;83;21076;-71
2022/06/17 12:10:37;;;;;;;2.33;1.40;;;;;;;35.50;32.32;100819.70;1690417;83;21043;-71
2022/06/17 12:13:42;;;;;;;3.87;1.50;;;;;;;35.46;33.10;100818.52;1685649;83;22434;-71
2022/06/17 12:16:24;;;;;;;3.33;1.32;;;;;;;35.28;32.36;100811.81;1675964;83;21055;-71